This is the latest recevied weather packets stored in our database for station/object OK1HOL-13. If no packets are shown the sender has not sent any weather packets the latest 10 day(s).
| Time | Temp. | Humidity | Pressure | Rain* | Wind** | Luminosity | Snow |
|---|---|---|---|---|---|---|---|
| 1777898157 | 25.56° C | 27% | 1012.5 hPa | - | - | 387 W/m² | - |
| 1777897557 | 25.56° C | 27% | 1012.6 hPa | - | - | 431 W/m² | - |
| 1777896957 | 25.56° C | 27% | 1012.7 hPa | - | - | 399 W/m² | - |
| 1777896357 | 25.56° C | 27% | 1012.8 hPa | - | - | 294 W/m² | - |
| 1777895757 | 26.67° C | 26% | 1012.8 hPa | - | - | 408 W/m² | - |
| 1777895157 | 25° C | 28% | 1013 hPa | - | - | 431 W/m² | - |
| 1777894557 | 25° C | 28% | 1013.1 hPa | - | - | 431 W/m² | - |
| 1777893957 | 24.44° C | 28% | 1013.1 hPa | - | - | 431 W/m² | - |
| 1777893357 | 24.44° C | 28% | 1013.3 hPa | - | - | 333 W/m² | - |
| 1777892757 | 24.44° C | 28% | 1013.4 hPa | - | - | 431 W/m² | - |
| 1777892157 | 24.44° C | 28% | 1013.5 hPa | - | - | 431 W/m² | - |
| 1777891557 | 23.89° C | 29% | 1013.7 hPa | - | - | 370 W/m² | - |
| 1777890957 | 25° C | 27% | 1013.8 hPa | - | - | 431 W/m² | - |
| 1777890357 | 22.78° C | 33% | 1014 hPa | - | - | 327 W/m² | - |
| 1777889757 | 22.78° C | 32% | 1014.1 hPa | - | - | 281 W/m² | - |
| 1777889157 | 22.22° C | 34% | 1014.1 hPa | - | - | 201 W/m² | - |
| 1777888557 | 21.67° C | 35% | 1014.1 hPa | - | - | 177 W/m² | - |
| 1777887957 | 22.22° C | 33% | 1014.2 hPa | - | - | 228 W/m² | - |
| 1777887357 | 22.22° C | 34% | 1014.1 hPa | - | - | 261 W/m² | - |
| 1777886756 | 21.11° C | 36% | 1014.2 hPa | - | - | 225 W/m² | - |
| 1777886157 | 21.11° C | 34% | 1014.2 hPa | - | - | 191 W/m² | - |
| 1777885557 | 21.11° C | 34% | 1014.1 hPa | - | - | 234 W/m² | - |
| 1777884957 | 21.67° C | 35% | 1013.9 hPa | - | - | 357 W/m² | - |
| 1777884357 | 22.78° C | 33% | 1013.8 hPa | - | - | 242 W/m² | - |
| 1777883757 | 22.78° C | 33% | 1014 hPa | - | - | 423 W/m² | - |
* Rain since midnight (hover to see other rain measurements)
** Current wind speed in m/s (hover to see current wind gust speed)